Time;durP1;ratioP1;P1;durP2;ratioP2;P2;SDS_P1;SDS_P2;PMS_P1;PMS_P2;Temp;Humidity;BMP_temperature;BMP_pressure;BME280_temperature;BME280_humidity;BME280_pressure;Samples;Min_cycle;Max_cycle;Signal;HPM_P1;HPM_P2
2023/05/20 00:00:41;;;;;;;19.60;11.97;;;;;;;;;;5114252;28;20454;-73
2023/05/20 00:03:08;;;;;;;19.27;12.57;;;;;;;;;;5114249;27;20835;-73
2023/05/20 00:05:37;;;;;;;16.70;11.90;;;;;;;;;;5113995;28;20481;-74
2023/05/20 00:08:08;;;;;;;18.73;12.33;;;;;;;;;;5113830;28;20446;-73
2023/05/20 00:10:35;;;;;;;16.77;12.23;;;;;;;;;;5113696;28;20445;-73
2023/05/20 00:13:02;;;;;;;18.83;13.63;;;;;;;;;;5114224;28;20465;-74
2023/05/20 00:15:29;;;;;;;16.20;12.60;;;;;;;;;;5113622;28;20871;-74
2023/05/20 00:17:56;;;;;;;19.93;13.33;;;;;;;;;;5114086;28;20457;-74
2023/05/20 00:20:24;;;;;;;15.10;12.33;;;;;;;;;;5113532;28;20454;-74
2023/05/20 00:22:52;;;;;;;16.37;13.13;;;;;;;;;;5113967;28;21039;-73
2023/05/20 00:25:19;;;;;;;20.77;14.80;;;;;;;;;;5113948;28;20456;-73
2023/05/20 00:27:47;;;;;;;20.00;13.93;;;;;;;;;;5114160;28;20448;-74
2023/05/20 00:30:14;;;;;;;16.23;12.90;;;;;;;;;;5113909;28;20502;-73
2023/05/20 00:32:41;;;;;;;19.00;13.57;;;;;;;;;;5113791;28;20822;-73
2023/05/20 00:35:09;;;;;;;15.57;11.70;;;;;;;;;;5113480;28;20492;-74
2023/05/20 00:37:36;;;;;;;19.83;12.70;;;;;;;;;;5113598;28;20457;-73
2023/05/20 00:40:05;;;;;;;16.47;13.90;;;;;;;;;;5113607;28;20461;-73
2023/05/20 00:42:32;;;;;;;20.93;13.90;;;;;;;;;;5113341;28;20462;-74
2023/05/20 00:45:00;;;;;;;17.13;13.10;;;;;;;;;;5113468;28;20442;-73
2023/05/20 00:47:30;;;;;;;15.90;13.60;;;;;;;;;;5113443;28;20450;-73
2023/05/20 00:49:58;;;;;;;17.70;13.17;;;;;;;;;;5113621;28;20468;-73
2023/05/20 00:52:25;;;;;;;18.30;13.50;;;;;;;;;;5113541;28;20460;-74
2023/05/20 00:54:53;;;;;;;18.20;13.80;;;;;;;;;;5113278;28;20939;-74
2023/05/20 00:57:21;;;;;;;17.73;12.87;;;;;;;;;;5113445;28;20947;-74
2023/05/20 00:59:49;;;;;;;19.17;13.03;;;;;;;;;;5113584;28;20441;-74
2023/05/20 01:02:16;;;;;;;25.37;14.50;;;;;;;;;;5113358;28;20982;-74
2023/05/20 01:04:46;;;;;;;18.53;13.47;;;;;;;;;;5113123;28;20442;-74
2023/05/20 01:07:13;;;;;;;18.87;14.00;;;;;;;;;;5113006;28;20457;-74
2023/05/20 01:09:40;;;;;;;21.23;14.10;;;;;;;;;;5113231;28;20445;-74
2023/05/20 01:12:12;;;;;;;17.30;14.27;;;;;;;;;;5113386;28;20955;-74
2023/05/20 01:14:44;;;;;;;19.60;13.77;;;;;;;;;;5112771;28;20489;-74
2023/05/20 01:17:12;;;;;;;18.90;13.10;;;;;;;;;;5113264;28;20453;-73
2023/05/20 01:19:42;;;;;;;20.33;13.83;;;;;;;;;;5113009;28;20809;-74
2023/05/20 01:22:11;;;;;;;19.30;14.60;;;;;;;;;;5115428;28;20464;-74
2023/05/20 01:24:40;;;;;;;19.63;13.80;;;;;;;;;;5117143;28;20524;-73
2023/05/20 01:27:09;;;;;;;21.67;13.30;;;;;;;;;;5117381;28;20541;-74
2023/05/20 01:29:36;;;;;;;17.60;11.33;;;;;;;;;;5117497;28;20453;-74
2023/05/20 01:32:05;;;;;;;17.93;13.47;;;;;;;;;;5117246;28;20449;-73
2023/05/20 01:34:32;;;;;;;22.87;13.97;;;;;;;;;;5116745;28;20477;-74
2023/05/20 01:37:00;;;;;;;18.80;14.53;;;;;;;;;;5117273;27;20904;-74
2023/05/20 01:39:27;;;;;;;20.20;14.40;;;;;;;;;;5117147;28;20452;-73
2023/05/20 01:41:56;;;;;;;18.70;13.03;;;;;;;;;;5116997;28;20456;-74
2023/05/20 01:44:23;;;;;;;21.67;15.10;;;;;;;;;;5116717;28;20982;-74
2023/05/20 01:46:50;;;;;;;20.60;15.00;;;;;;;;;;5117104;27;20468;-74
2023/05/20 01:49:17;;;;;;;26.20;16.00;;;;;;;;;;5116940;28;20453;-74
2023/05/20 01:51:44;;;;;;;26.33;17.20;;;;;;;;;;5116928;28;20449;-74
2023/05/20 01:54:12;;;;;;;20.53;15.20;;;;;;;;;;5116626;28;20484;-74
2023/05/20 01:56:39;;;;;;;19.57;14.60;;;;;;;;;;5116590;28;20481;-74
2023/05/20 01:59:08;;;;;;;21.17;15.27;;;;;;;;;;5116705;28;20453;-73
2023/05/20 02:01:35;;;;;;;20.93;16.40;;;;;;;;;;5116559;28;20513;-73
2023/05/20 02:04:02;;;;;;;27.53;16.80;;;;;;;;;;5116430;28;20477;-74
2023/05/20 02:06:29;;;;;;;27.93;17.10;;;;;;;;;;5116465;27;20802;-74
2023/05/20 02:08:56;;;;;;;22.37;15.93;;;;;;;;;;5116486;28;20453;-74
2023/05/20 02:11:23;;;;;;;19.90;15.30;;;;;;;;;;5116554;28;20476;-74
2023/05/20 02:13:51;;;;;;;20.60;15.80;;;;;;;;;;5116045;28;20941;-73
2023/05/20 02:16:19;;;;;;;26.10;16.47;;;;;;;;;;5115017;28;20485;-73
2023/05/20 02:18:46;;;;;;;26.87;15.30;;;;;;;;;;5115183;28;20556;-73
2023/05/20 02:21:13;;;;;;;23.70;15.97;;;;;;;;;;5114734;28;20450;-73
2023/05/20 02:23:40;;;;;;;22.90;15.60;;;;;;;;;;5114832;28;20461;-74
2023/05/20 02:26:08;;;;;;;24.50;16.57;;;;;;;;;;5115149;28;20527;-74
2023/05/20 02:28:37;;;;;;;24.63;18.00;;;;;;;;;;5114949;28;20862;-73
2023/05/20 02:31:05;;;;;;;27.03;16.20;;;;;;;;;;5115011;28;20836;-73
2023/05/20 02:33:33;;;;;;;21.43;16.77;;;;;;;;;;5114206;28;20986;-74
2023/05/20 02:36:00;;;;;;;24.57;14.97;;;;;;;;;;5114722;28;20482;-73
2023/05/20 02:38:27;;;;;;;20.63;15.00;;;;;;;;;;5114727;28;20969;-74
2023/05/20 02:40:55;;;;;;;20.07;14.90;;;;;;;;;;5114944;28;20998;-74
2023/05/20 02:43:22;;;;;;;19.07;15.03;;;;;;;;;;5114397;28;20489;-74
2023/05/20 02:45:49;;;;;;;17.47;13.93;;;;;;;;;;5114683;28;20445;-73
2023/05/20 02:48:16;;;;;;;22.23;13.97;;;;;;;;;;5114660;28;20450;-73
2023/05/20 02:50:45;;;;;;;18.13;13.80;;;;;;;;;;5114501;28;20455;-73
2023/05/20 02:53:13;;;;;;;18.00;15.07;;;;;;;;;;5114551;28;20555;-74
2023/05/20 02:55:40;;;;;;;19.53;14.97;;;;;;;;;;5114179;28;20473;-74
2023/05/20 02:58:07;;;;;;;18.67;14.03;;;;;;;;;;5114470;28;20456;-73
2023/05/20 03:00:39;;;;;;;17.53;13.97;;;;;;;;;;5114474;28;20446;-73
2023/05/20 03:03:06;;;;;;;19.33;14.40;;;;;;;;;;5114340;28;20509;-73
2023/05/20 03:05:36;;;;;;;21.77;14.80;;;;;;;;;;5114240;28;21016;-73
2023/05/20 03:08:04;;;;;;;19.37;15.33;;;;;;;;;;5114288;28;20454;-73
2023/05/20 03:10:31;;;;;;;19.87;15.90;;;;;;;;;;5114234;28;20449;-73
2023/05/20 03:12:59;;;;;;;18.70;13.07;;;;;;;;;;5114368;28;20469;-73
2023/05/20 03:15:26;;;;;;;19.70;14.80;;;;;;;;;;5074107;28;1147670;-73
2023/05/20 03:17:53;;;;;;;19.37;13.97;;;;;;;;;;5115325;28;20442;-73
2023/05/20 03:20:20;;;;;;;21.00;14.17;;;;;;;;;;5114903;28;20969;-73
2023/05/20 03:22:47;;;;;;;22.60;14.47;;;;;;;;;;5115036;28;20465;-73
2023/05/20 03:25:16;;;;;;;24.40;15.40;;;;;;;;;;5114844;28;20441;-73
2023/05/20 03:27:43;;;;;;;20.00;14.63;;;;;;;;;;5115118;28;20823;-73
2023/05/20 03:30:11;;;;;;;19.00;14.13;;;;;;;;;;5114997;28;20449;-74
2023/05/20 03:32:38;;;;;;;16.90;14.30;;;;;;;;;;5114763;27;20466;-74
2023/05/20 03:35:06;;;;;;;17.80;13.00;;;;;;;;;;5114697;28;20818;-74
2023/05/20 03:37:33;;;;;;;19.27;12.93;;;;;;;;;;5114699;28;20497;-73
2023/05/20 03:40:00;;;;;;;17.97;13.30;;;;;;;;;;5114834;28;20450;-73
2023/05/20 03:42:28;;;;;;;20.77;13.50;;;;;;;;;;5114556;28;20454;-73
2023/05/20 03:44:56;;;;;;;18.73;13.67;;;;;;;;;;5113717;28;20954;-73
2023/05/20 03:47:23;;;;;;;16.57;12.63;;;;;;;;;;5114607;28;20866;-73
2023/05/20 03:49:50;;;;;;;20.37;13.63;;;;;;;;;;5114625;28;20445;-74
2023/05/20 03:52:17;;;;;;;20.23;13.10;;;;;;;;;;5114433;28;20456;-73
2023/05/20 03:54:44;;;;;;;18.40;12.37;;;;;;;;;;5114244;28;20465;-73
2023/05/20 03:57:11;;;;;;;15.00;11.20;;;;;;;;;;5114360;28;20895;-74
2023/05/20 03:59:40;;;;;;;14.33;11.10;;;;;;;;;;5114292;28;20453;-74
2023/05/20 04:02:07;;;;;;;18.20;12.87;;;;;;;;;;5114404;28;20510;-73
2023/05/20 04:04:35;;;;;;;13.80;11.30;;;;;;;;;;5113933;28;20515;-74
2023/05/20 04:07:03;;;;;;;15.67;11.27;;;;;;;;;;5113992;28;20470;-74
2023/05/20 04:09:30;;;;;;;16.53;11.27;;;;;;;;;;5114111;28;20458;-74
2023/05/20 04:11:57;;;;;;;13.90;11.67;;;;;;;;;;5114190;28;20458;-74
2023/05/20 04:14:25;;;;;;;17.97;10.77;;;;;;;;;;5113652;28;20559;-74
2023/05/20 04:16:53;;;;;;;10.57;9.17;;;;;;;;;;5114052;28;20482;-73
2023/05/20 04:19:22;;;;;;;9.60;8.03;;;;;;;;;;5114045;28;20869;-74
2023/05/20 04:21:50;;;;;;;10.07;7.07;;;;;;;;;;5113599;28;20461;-73
2023/05/20 04:24:17;;;;;;;16.10;8.37;;;;;;;;;;5113729;27;20480;-74
2023/05/20 04:26:44;;;;;;;11.70;7.20;;;;;;;;;;5113858;28;20453;-74
2023/05/20 04:29:11;;;;;;;7.93;7.03;;;;;;;;;;5113966;28;20454;-74
2023/05/20 04:31:38;;;;;;;8.70;6.73;;;;;;;;;;5113757;28;20469;-74
2023/05/20 04:34:06;;;;;;;8.10;6.97;;;;;;;;;;5113680;28;20472;-74
2023/05/20 04:36:37;;;;;;;9.00;7.03;;;;;;;;;;5113580;28;20486;-74
2023/05/20 04:39:06;;;;;;;9.33;7.23;;;;;;;;;;5113758;28;20465;-74
2023/05/20 04:41:35;;;;;;;11.97;7.40;;;;;;;;;;5113619;28;20456;-74
2023/05/20 04:44:02;;;;;;;11.97;6.80;;;;;;;;;;5113482;28;20980;-77
2023/05/20 04:46:30;;;;;;;11.47;7.10;;;;;;;;;;5113694;28;20475;-76
2023/05/20 04:48:57;;;;;;;9.60;7.27;;;;;;;;;;5113660;28;20491;-76
2023/05/20 04:51:25;;;;;;;10.23;8.17;;;;;;;;;;5113352;28;20454;-76
2023/05/20 04:53:52;;;;;;;7.20;6.30;;;;;;;;;;5113329;28;20889;-77
2023/05/20 04:56:20;;;;;;;8.43;6.60;;;;;;;;;;5113333;28;20506;-77
2023/05/20 04:58:47;;;;;;;8.23;7.37;;;;;;;;;;5113369;28;20453;-77
2023/05/20 05:01:14;;;;;;;9.33;6.30;;;;;;;;;;5113489;28;20442;-77
2023/05/20 05:03:41;;;;;;;8.97;7.20;;;;;;;;;;5113197;28;21021;-77
2023/05/20 05:06:08;;;;;;;11.27;8.20;;;;;;;;;;5113362;28;20454;-77
2023/05/20 05:08:36;;;;;;;7.70;6.90;;;;;;;;;;5113052;28;20461;-77
2023/05/20 05:11:05;;;;;;;9.93;6.70;;;;;;;;;;5113515;28;20969;-77
2023/05/20 05:13:33;;;;;;;7.67;6.10;;;;;;;;;;5113059;28;20457;-77
2023/05/20 05:16:00;;;;;;;6.87;6.17;;;;;;;;;;5113096;28;20872;-77
2023/05/20 05:18:27;;;;;;;12.50;7.93;;;;;;;;;;5113152;28;20454;-77
2023/05/20 05:20:59;;;;;;;9.60;6.53;;;;;;;;;;5112994;28;20460;-77
2023/05/20 05:23:26;;;;;;;10.23;7.30;;;;;;;;;;5113216;28;21063;-77
2023/05/20 05:25:55;;;;;;;10.43;6.60;;;;;;;;;;5113177;28;20942;-74
2023/05/20 05:28:22;;;;;;;9.60;7.23;;;;;;;;;;5113127;28;20490;-75
2023/05/20 05:30:49;;;;;;;8.20;6.77;;;;;;;;;;5113179;28;20452;-74
2023/05/20 05:33:17;;;;;;;11.63;7.73;;;;;;;;;;5112995;28;20468;-74
2023/05/20 05:35:44;;;;;;;10.33;7.70;;;;;;;;;;5112913;28;20506;-75
2023/05/20 05:38:11;;;;;;;7.90;6.27;;;;;;;;;;5112987;28;20450;-75
2023/05/20 05:40:38;;;;;;;7.67;6.87;;;;;;;;;;5112963;28;20453;-75
2023/05/20 05:43:06;;;;;;;8.77;7.53;;;;;;;;;;5112927;28;20473;-75
2023/05/20 05:45:33;;;;;;;9.17;7.03;;;;;;;;;;5112691;28;20465;-74
2023/05/20 05:48:01;;;;;;;8.87;7.43;;;;;;;;;;5112995;28;20559;-74
2023/05/20 05:50:28;;;;;;;9.63;7.23;;;;;;;;;;5112902;28;20456;-74
2023/05/20 05:52:55;;;;;;;7.40;6.20;;;;;;;;;;5112775;28;20466;-75
2023/05/20 05:55:22;;;;;;;8.47;6.13;;;;;;;;;;5112746;28;20446;-75
2023/05/20 05:57:50;;;;;;;6.73;5.67;;;;;;;;;;5112838;28;20485;-75
2023/05/20 06:00:19;;;;;;;9.00;6.03;;;;;;;;;;5112951;28;20802;-75
2023/05/20 06:02:46;;;;;;;7.53;5.67;;;;;;;;;;5112642;28;20469;-75
2023/05/20 06:05:13;;;;;;;6.60;6.00;;;;;;;;;;5112580;28;20465;-75
2023/05/20 06:07:40;;;;;;;8.40;6.20;;;;;;;;;;5113408;28;20814;-75
2023/05/20 06:10:07;;;;;;;7.53;5.60;;;;;;;;;;5116637;28;20464;-75
2023/05/20 06:12:34;;;;;;;10.43;5.60;;;;;;;;;;5116365;28;20453;-75
2023/05/20 06:15:02;;;;;;;5.97;5.47;;;;;;;;;;5116169;28;20465;-75
2023/05/20 06:17:30;;;;;;;7.90;5.47;;;;;;;;;;5116357;28;20842;-75
2023/05/20 06:19:58;;;;;;;6.70;6.00;;;;;;;;;;5116169;28;20450;-75
2023/05/20 06:22:25;;;;;;;12.50;6.73;;;;;;;;;;5116250;28;20449;-75
2023/05/20 06:24:55;;;;;;;7.67;6.53;;;;;;;;;;5116217;28;20449;-75
2023/05/20 06:27:22;;;;;;;6.90;6.20;;;;;;;;;;5116247;28;20888;-75
2023/05/20 06:29:49;;;;;;;7.33;5.77;;;;;;;;;;5116253;28;21007;-75
2023/05/20 06:32:16;;;;;;;6.17;5.67;;;;;;;;;;5116127;28;20830;-75
2023/05/20 06:34:45;;;;;;;9.60;6.10;;;;;;;;;;5115832;28;20453;-75
2023/05/20 06:37:12;;;;;;;9.07;6.70;;;;;;;;;;5115894;28;20488;-75
2023/05/20 06:39:39;;;;;;;10.73;6.60;;;;;;;;;;5115916;28;20449;-75
2023/05/20 06:42:07;;;;;;;7.93;6.70;;;;;;;;;;5115834;28;20456;-75
2023/05/20 06:44:34;;;;;;;6.70;6.10;;;;;;;;;;5115580;28;20935;-75
2023/05/20 06:47:01;;;;;;;7.10;6.50;;;;;;;;;;5115876;28;20442;-75
2023/05/20 06:49:28;;;;;;;6.30;5.10;;;;;;;;;;5115760;28;20457;-75
2023/05/20 06:51:56;;;;;;;7.53;6.20;;;;;;;;;;5115910;27;20457;-75
2023/05/20 06:54:23;;;;;;;7.10;5.83;;;;;;;;;;5115305;28;20480;-75
2023/05/20 06:56:50;;;;;;;6.77;6.10;;;;;;;;;;5115734;28;20492;-75
2023/05/20 06:59:17;;;;;;;6.90;6.30;;;;;;;;;;5115676;28;20460;-75
2023/05/20 07:01:44;;;;;;;6.23;5.73;;;;;;;;;;5115645;27;20460;-75
2023/05/20 07:04:12;;;;;;;6.60;5.87;;;;;;;;;;5115382;28;21045;-75
2023/05/20 07:06:39;;;;;;;6.73;6.13;;;;;;;;;;5115192;28;20838;-75
2023/05/20 07:09:07;;;;;;;8.97;6.40;;;;;;;;;;5115563;27;20480;-75
2023/05/20 07:11:34;;;;;;;5.43;4.93;;;;;;;;;;5115501;28;20453;-75
2023/05/20 07:14:01;;;;;;;6.30;5.70;;;;;;;;;;5114926;27;20521;-75
2023/05/20 07:16:29;;;;;;;5.63;5.13;;;;;;;;;;5115177;28;20488;-75
2023/05/20 07:18:56;;;;;;;7.90;6.33;;;;;;;;;;5114356;28;20450;-76
2023/05/20 07:21:23;;;;;;;7.93;5.80;;;;;;;;;;5114774;28;20454;-76
2023/05/20 07:23:50;;;;;;;7.67;5.10;;;;;;;;;;5114933;28;20989;-76
2023/05/20 07:26:18;;;;;;;6.00;5.47;;;;;;;;;;5115234;27;20450;-77
2023/05/20 07:28:46;;;;;;;7.57;5.43;;;;;;;;;;5115004;27;20449;-75
2023/05/20 07:31:13;;;;;;;7.00;5.23;;;;;;;;;;5115110;28;20478;-75
2023/05/20 07:33:40;;;;;;;7.13;6.13;;;;;;;;;;5114594;28;21005;-76
2023/05/20 07:36:07;;;;;;;10.90;4.67;;;;;;;;;;5115026;28;20449;-75
2023/05/20 07:38:34;;;;;;;5.83;5.27;;;;;;;;;;5114703;28;20485;-75
2023/05/20 07:41:01;;;;;;;6.73;6.10;;;;;;;;;;5114896;28;20457;-75
2023/05/20 07:43:30;;;;;;;8.37;6.83;;;;;;;;;;5114476;28;20476;-75
2023/05/20 07:45:57;;;;;;;7.63;6.50;;;;;;;;;;5114776;28;20453;-75
2023/05/20 07:48:24;;;;;;;8.70;5.70;;;;;;;;;;5114590;28;20965;-75
2023/05/20 07:50:51;;;;;;;6.33;5.63;;;;;;;;;;5114647;28;20450;-75
2023/05/20 07:53:18;;;;;;;8.93;5.20;;;;;;;;;;5114601;28;21000;-75
2023/05/20 07:55:45;;;;;;;5.87;5.20;;;;;;;;;;5114193;28;20506;-76
2023/05/20 07:58:12;;;;;;;7.80;5.37;;;;;;;;;;5114547;28;20489;-76
2023/05/20 08:00:41;;;;;;;9.13;5.67;;;;;;;;;;5114376;27;20531;-77
2023/05/20 08:03:08;;;;;;;5.97;5.40;;;;;;;;;;5114428;28;20461;-76
2023/05/20 08:05:37;;;;;;;7.73;5.90;;;;;;;;;;5114105;28;20446;-77
2023/05/20 08:08:04;;;;;;;6.60;5.90;;;;;;;;;;5114232;28;20469;-76
2023/05/20 08:10:31;;;;;;;7.27;6.33;;;;;;;;;;5114180;28;20458;-76
2023/05/20 08:12:58;;;;;;;6.90;6.23;;;;;;;;;;5114138;28;20974;-76
2023/05/20 08:15:25;;;;;;;6.20;5.60;;;;;;;;;;5113767;28;20843;-76
2023/05/20 08:17:54;;;;;;;6.60;6.00;;;;;;;;;;5114045;28;20489;-76
2023/05/20 08:20:21;;;;;;;6.77;6.07;;;;;;;;;;5114122;27;20457;-78
2023/05/20 08:22:48;;;;;;;6.30;5.47;;;;;;;;;;5114271;28;20472;-76
2023/05/20 08:25:15;;;;;;;5.63;5.00;;;;;;;;;;5113746;28;20457;-76
2023/05/20 08:27:42;;;;;;;5.03;4.63;;;;;;;;;;5113831;28;20454;-76
2023/05/20 08:30:10;;;;;;;6.10;5.50;;;;;;;;;;5113548;28;20499;-76
2023/05/20 08:32:37;;;;;;;6.80;6.20;;;;;;;;;;5114149;28;20457;-76
2023/05/20 08:35:06;;;;;;;7.03;5.60;;;;;;;;;;5113613;28;20458;-76
2023/05/20 08:37:33;;;;;;;7.10;6.37;;;;;;;;;;5113581;27;20487;-76
2023/05/20 08:40:00;;;;;;;9.30;5.60;;;;;;;;;;5113745;28;20454;-77
2023/05/20 08:42:27;;;;;;;6.67;6.07;;;;;;;;;;5113517;28;20965;-76
2023/05/20 08:44:55;;;;;;;5.90;5.00;;;;;;;;;;5113525;28;20820;-76
2023/05/20 08:47:22;;;;;;;5.47;5.07;;;;;;;;;;5113612;28;20943;-77
2023/05/20 08:49:49;;;;;;;5.17;4.77;;;;;;;;;;5113640;28;20445;-77
2023/05/20 08:52:19;;;;;;;6.60;5.70;;;;;;;;;;5113526;28;20461;-77
2023/05/20 08:54:47;;;;;;;9.17;5.93;;;;;;;;;;5113398;28;20445;-77
2023/05/20 08:57:14;;;;;;;6.63;4.90;;;;;;;;;;5113414;28;20844;-77
2023/05/20 08:59:43;;;;;;;6.60;4.87;;;;;;;;;;5113357;28;20452;-76
2023/05/20 09:02:11;;;;;;;5.50;4.90;;;;;;;;;;5113551;28;20449;-76
2023/05/20 09:04:38;;;;;;;7.03;6.00;;;;;;;;;;5113030;28;20523;-76
2023/05/20 09:07:05;;;;;;;6.30;5.80;;;;;;;;;;5113132;28;20453;-76
2023/05/20 09:09:34;;;;;;;6.03;5.43;;;;;;;;;;5113324;28;20453;-76
2023/05/20 09:12:02;;;;;;;5.40;4.90;;;;;;;;;;5113455;28;20872;-76
2023/05/20 09:14:29;;;;;;;6.43;5.80;;;;;;;;;;5112869;28;20480;-76
2023/05/20 09:16:56;;;;;;;7.33;5.73;;;;;;;;;;5113333;28;20488;-77
2023/05/20 09:19:23;;;;;;;7.83;5.20;;;;;;;;;;5113110;28;20454;-77
2023/05/20 09:21:51;;;;;;;6.20;5.27;;;;;;;;;;5112626;28;20468;-76
2023/05/20 09:24:20;;;;;;;5.40;4.90;;;;;;;;;;5112914;28;20481;-77
2023/05/20 09:26:49;;;;;;;6.07;5.47;;;;;;;;;;5113170;28;20898;-76
2023/05/20 09:29:16;;;;;;;6.87;5.90;;;;;;;;;;5113206;28;20465;-77
2023/05/20 09:31:43;;;;;;;6.70;5.50;;;;;;;;;;5113005;28;20465;-77
2023/05/20 09:34:10;;;;;;;6.60;5.30;;;;;;;;;;5112920;28;20477;-77
2023/05/20 09:36:40;;;;;;;7.40;6.57;;;;;;;;;;5113043;28;20457;-77
2023/05/20 09:39:08;;;;;;;7.30;6.60;;;;;;;;;;5112988;28;21079;-78
2023/05/20 09:41:39;;;;;;;6.00;5.50;;;;;;;;;;5113241;28;20445;-77
2023/05/20 09:44:07;;;;;;;8.93;8.00;;;;;;;;;;5116440;28;20474;-77
2023/05/20 09:46:35;;;;;;;7.00;6.40;;;;;;;;;;5117047;27;20830;-77
2023/05/20 09:49:05;;;;;;;9.57;7.93;;;;;;;;;;5117084;28;20950;-77
2023/05/20 09:51:34;;;;;;;7.50;6.63;;;;;;;;;;5116978;28;20445;-77
2023/05/20 09:54:02;;;;;;;8.50;7.60;;;;;;;;;;5116613;28;20477;-77
2023/05/20 09:56:30;;;;;;;7.93;6.70;;;;;;;;;;5116767;28;20502;-77
2023/05/20 09:58:59;;;;;;;7.80;6.60;;;;;;;;;;5116652;28;20482;-77
2023/05/20 10:01:28;;;;;;;5.20;4.70;;;;;;;;;;5116787;28;20449;-78
2023/05/20 10:03:55;;;;;;;9.37;6.17;;;;;;;;;;5116545;28;20501;-77
2023/05/20 10:06:39;;;;;;;11.13;6.17;;;;;;;;;;5116335;28;20457;-77
2023/05/20 10:09:12;;;;;;;9.50;8.40;;;;;;;;;;5116676;28;20927;-77
2023/05/20 10:11:42;;;;;;;7.37;6.10;;;;;;;;;;5116626;28;20461;-77
2023/05/20 10:14:40;;;;;;;7.17;6.10;;;;;;;;;;5116455;28;20954;-79
2023/05/20 10:17:13;;;;;;;8.93;7.30;;;;;;;;;;5035227;28;20978;-79
2023/05/20 10:19:41;;;;;;;7.83;7.03;;;;;;;;;;5101171;27;20465;-78
2023/05/20 10:22:08;;;;;;;7.13;6.13;;;;;;;;;;5116639;28;20448;-76
2023/05/20 10:24:36;;;;;;;7.27;6.57;;;;;;;;;;5116167;28;20886;-78
2023/05/20 10:27:04;;;;;;;6.80;6.07;;;;;;;;;;5116627;28;20532;-75
2023/05/20 10:29:42;;;;;;;7.00;6.33;;;;;;;;;;5116166;28;20461;-75
2023/05/20 10:32:10;;;;;;;8.10;7.20;;;;;;;;;;5116265;28;20449;-76
2023/05/20 10:34:45;;;;;;;8.40;6.77;;;;;;;;;;5115811;28;20507;-76
2023/05/20 10:37:21;;;;;;;8.00;7.20;;;;;;;;;;5116226;27;20571;-76
2023/05/20 10:39:48;;;;;;;10.03;6.77;;;;;;;;;;5116024;28;20457;-76
2023/05/20 10:42:16;;;;;;;8.43;7.53;;;;;;;;;;5116033;28;20450;-76
2023/05/20 10:44:43;;;;;;;8.80;8.00;;;;;;;;;;5115814;28;20487;-76
2023/05/20 10:47:12;;;;;;;9.13;6.97;;;;;;;;;;5116136;27;20502;-76
2023/05/20 10:49:41;;;;;;;7.83;6.87;;;;;;;;;;5115744;28;20972;-75
2023/05/20 10:52:10;;;;;;;10.20;7.27;;;;;;;;;;5115986;28;20995;-76
2023/05/20 10:54:37;;;;;;;8.83;7.23;;;;;;;;;;5115276;28;20974;-76
2023/05/20 10:57:08;;;;;;;8.83;6.90;;;;;;;;;;5115709;28;20453;-76
2023/05/20 10:59:35;;;;;;;8.23;7.00;;;;;;;;;;5115552;28;20492;-76
2023/05/20 11:02:02;;;;;;;7.50;6.77;;;;;;;;;;5115532;28;20465;-76
2023/05/20 11:04:31;;;;;;;7.73;6.77;;;;;;;;;;5115188;28;21005;-76
2023/05/20 11:06:58;;;;;;;7.90;6.50;;;;;;;;;;5115372;27;20950;-76
2023/05/20 11:09:25;;;;;;;7.43;6.50;;;;;;;;;;5115379;28;20464;-76
2023/05/20 11:11:53;;;;;;;8.63;7.73;;;;;;;;;;5115478;28;20446;-76
2023/05/20 11:14:21;;;;;;;6.40;5.80;;;;;;;;;;5114976;28;20481;-77
2023/05/20 11:16:52;;;;;;;7.70;6.93;;;;;;;;;;5115318;28;20449;-76
2023/05/20 11:19:20;;;;;;;7.67;6.87;;;;;;;;;;5115207;28;20525;-76
2023/05/20 11:21:48;;;;;;;7.60;6.87;;;;;;;;;;5114653;28;20900;-75
2023/05/20 11:24:22;;;;;;;14.90;6.63;;;;;;;;;;5115140;28;20474;-76
2023/05/20 11:26:49;;;;;;;7.83;7.03;;;;;;;;;;5115253;28;20445;-75
2023/05/20 11:29:18;;;;;;;8.17;6.50;;;;;;;;;;5115157;28;20511;-76
2023/05/20 11:31:46;;;;;;;8.90;7.60;;;;;;;;;;5114924;28;20821;-76
2023/05/20 11:34:13;;;;;;;8.70;7.27;;;;;;;;;;5114721;28;20835;-76
2023/05/20 11:36:41;;;;;;;8.20;7.40;;;;;;;;;;5114813;28;20961;-75
2023/05/20 11:39:10;;;;;;;8.73;7.33;;;;;;;;;;5114777;28;20500;-76
2023/05/20 11:41:37;;;;;;;9.93;7.13;;;;;;;;;;5114724;28;20511;-76
2023/05/20 11:44:05;;;;;;;8.77;7.20;;;;;;;;;;5114562;28;20469;-76
2023/05/20 11:46:32;;;;;;;11.00;8.20;;;;;;;;;;5114615;28;20457;-76
2023/05/20 11:48:59;;;;;;;9.10;7.20;;;;;;;;;;5114686;28;20445;-76
2023/05/20 11:51:27;;;;;;;10.20;7.77;;;;;;;;;;5114558;27;20826;-75
2023/05/20 11:54:01;;;;;;;9.33;7.23;;;;;;;;;;5114319;28;20481;-75
2023/05/20 11:56:30;;;;;;;11.63;7.10;;;;;;;;;;5114459;27;20478;-75
2023/05/20 11:58:58;;;;;;;9.33;6.87;;;;;;;;;;5114353;28;20485;-75
2023/05/20 12:01:26;;;;;;;7.60;6.90;;;;;;;;;;5114358;28;21019;-75
2023/05/20 12:03:53;;;;;;;9.80;8.87;;;;;;;;;;5114418;28;20542;-74
2023/05/20 12:06:21;;;;;;;8.03;7.23;;;;;;;;;;5113217;28;20469;-74
2023/05/20 12:08:48;;;;;;;9.13;8.23;;;;;;;;;;5114214;27;20449;-74
2023/05/20 12:11:15;;;;;;;7.60;6.70;;;;;;;;;;5114198;28;20449;-74
2023/05/20 12:13:44;;;;;;;8.33;7.33;;;;;;;;;;5113908;28;20509;-74
2023/05/20 12:16:11;;;;;;;8.50;7.47;;;;;;;;;;5114134;28;20445;-74
2023/05/20 12:18:38;;;;;;;9.47;7.47;;;;;;;;;;5113876;28;21024;-74
2023/05/20 12:21:05;;;;;;;10.40;7.50;;;;;;;;;;5113523;28;20450;-73
2023/05/20 12:23:33;;;;;;;8.70;6.93;;;;;;;;;;5113731;28;20469;-74
2023/05/20 12:26:00;;;;;;;8.50;7.67;;;;;;;;;;5114157;28;20460;-74
2023/05/20 12:28:27;;;;;;;9.47;8.17;;;;;;;;;;5113856;28;20477;-74
2023/05/20 12:30:55;;;;;;;8.77;7.47;;;;;;;;;;5113847;28;20453;-74
2023/05/20 12:33:22;;;;;;;8.47;7.57;;;;;;;;;;5113777;28;20473;-74
2023/05/20 12:35:49;;;;;;;10.83;9.20;;;;;;;;;;5113752;28;21028;-74
2023/05/20 12:38:16;;;;;;;8.10;7.30;;;;;;;;;;5113859;28;20852;-74
2023/05/20 12:40:44;;;;;;;9.00;7.00;;;;;;;;;;5113875;28;20458;-74
2023/05/20 12:43:11;;;;;;;10.30;7.10;;;;;;;;;;5113645;28;20469;-74
2023/05/20 12:45:38;;;;;;;10.70;7.40;;;;;;;;;;5113445;27;20450;-73
2023/05/20 12:48:06;;;;;;;12.40;6.70;;;;;;;;;;5113636;28;20460;-76
2023/05/20 12:50:34;;;;;;;6.73;6.03;;;;;;;;;;5113528;28;21062;-76
2023/05/20 12:53:01;;;;;;;12.93;7.60;;;;;;;;;;5113594;28;20477;-74
2023/05/20 12:55:28;;;;;;;10.73;6.80;;;;;;;;;;5113352;28;20452;-74
2023/05/20 12:57:55;;;;;;;10.07;7.47;;;;;;;;;;5113438;28;20456;-74
2023/05/20 13:00:23;;;;;;;8.67;7.50;;;;;;;;;;5113448;28;20527;-74
2023/05/20 13:02:51;;;;;;;10.17;7.30;;;;;;;;;;5113451;28;20461;-74
2023/05/20 13:05:21;;;;;;;7.30;6.60;;;;;;;;;;5113383;28;20507;-74
2023/05/20 13:07:48;;;;;;;7.90;7.10;;;;;;;;;;5113255;28;20453;-73
2023/05/20 13:10:16;;;;;;;7.20;6.50;;;;;;;;;;5113365;28;20446;-74
2023/05/20 13:12:45;;;;;;;9.80;6.30;;;;;;;;;;5113120;28;20484;-74
2023/05/20 13:15:13;;;;;;;12.63;6.83;;;;;;;;;;5113100;28;20496;-73
2023/05/20 13:17:41;;;;;;;6.57;5.13;;;;;;;;;;5116152;28;20450;-74
2023/05/20 13:20:09;;;;;;;7.57;6.80;;;;;;;;;;5117019;28;20531;-73
2023/05/20 13:22:38;;;;;;;8.47;7.30;;;;;;;;;;5117386;28;20457;-73
2023/05/20 13:25:05;;;;;;;8.50;6.30;;;;;;;;;;5117241;28;20445;-74
2023/05/20 13:27:32;;;;;;;8.53;7.30;;;;;;;;;;5117550;28;20442;-73
2023/05/20 13:30:00;;;;;;;12.97;8.00;;;;;;;;;;5117362;28;20942;-73
2023/05/20 13:32:27;;;;;;;8.30;7.40;;;;;;;;;;5117078;28;20458;-73
2023/05/20 13:34:55;;;;;;;8.17;7.30;;;;;;;;;;5117012;28;20446;-73
2023/05/20 13:37:22;;;;;;;8.70;7.60;;;;;;;;;;5117256;28;20498;-74
2023/05/20 13:39:51;;;;;;;12.70;7.77;;;;;;;;;;5117107;28;20489;-73
2023/05/20 13:42:18;;;;;;;7.73;6.97;;;;;;;;;;5116879;28;20453;-74
2023/05/20 13:44:45;;;;;;;9.27;7.50;;;;;;;;;;5116851;28;20450;-73
2023/05/20 13:47:12;;;;;;;8.10;7.30;;;;;;;;;;5117218;28;20449;-76
2023/05/20 13:49:39;;;;;;;10.00;7.67;;;;;;;;;;5117075;28;20442;-75
2023/05/20 13:52:07;;;;;;;8.97;7.50;;;;;;;;;;5116915;28;20453;-75
2023/05/20 13:54:34;;;;;;;6.73;6.13;;;;;;;;;;5116630;28;20523;-75
2023/05/20 13:57:06;;;;;;;8.53;7.57;;;;;;;;;;5116909;28;20453;-75
2023/05/20 13:59:33;;;;;;;8.00;7.17;;;;;;;;;;5116641;28;21005;-76
2023/05/20 14:02:00;;;;;;;7.53;6.77;;;;;;;;;;5116843;27;20492;-75
2023/05/20 14:04:27;;;;;;;8.97;8.07;;;;;;;;;;5116376;28;20838;-76
2023/05/20 14:06:55;;;;;;;7.40;6.70;;;;;;;;;;5116547;28;20526;-76
2023/05/20 14:09:22;;;;;;;9.20;8.30;;;;;;;;;;5116664;27;20437;-76
2023/05/20 14:11:50;;;;;;;9.97;7.60;;;;;;;;;;5116626;28;20453;-76
2023/05/20 14:14:18;;;;;;;8.20;7.20;;;;;;;;;;5116050;28;20485;-76
2023/05/20 14:16:45;;;;;;;8.23;7.43;;;;;;;;;;5116462;28;20450;-75
2023/05/20 14:19:12;;;;;;;9.70;6.57;;;;;;;;;;5116306;28;20492;-75
2023/05/20 14:21:39;;;;;;;8.70;7.80;;;;;;;;;;5115875;27;20958;-76
2023/05/20 14:24:07;;;;;;;9.10;8.20;;;;;;;;;;5116078;28;20476;-76
2023/05/20 14:26:34;;;;;;;10.20;7.40;;;;;;;;;;5116261;28;20448;-75
2023/05/20 14:29:01;;;;;;;9.13;7.00;;;;;;;;;;5115660;28;20450;-76
2023/05/20 14:31:29;;;;;;;7.70;6.70;;;;;;;;;;5116024;28;20446;-75
2023/05/20 14:33:57;;;;;;;9.33;7.03;;;;;;;;;;5115893;28;20465;-76
2023/05/20 14:36:24;;;;;;;9.57;7.47;;;;;;;;;;5116057;28;20452;-75